Lewisporte, Canada
Current Conditions -  °F | °C
As of 6:00 PM on Friday 31 Oct 2014 (Local Time) from CYQX Reporting Station
Few Clouds Few Clouds  
Wind Chill: 42°   Ceiling: Unl
Heat Index: 45°   Visibility: 20mi
Dew Point: 32°   Wind: 5mph
Humidity: 61%   Direction: 230°SW
Pressure: 29.99"   Gusts: NA
Location:  49.23°N, 55.07°W
Report Text: CYQX 312000Z 23004KT 20SM FEW035 07/00 A2999 RMK SC1 SLP160
Loading
Personal Weather Stations






























Interactive Weather Map
Tropical Storm Tracking
New forecast layout! Learn more

10-Day Weather Forecast

Advertisements
Track Severe Weather on mobile